Accueil
METAR-TAF:

METAR-TAF

Aéroports :

Base aérienne 107 Villacoublay

Villacoublay, France

latitude: 48-46N, longitude: 002-12E, altitude: 177 m

Observation

Le bulletin a été fait il y a 24 minutes, à 01:00 UTC
Vent 5 kt de est/nord-est
Température 11°C
Humidité 71%
Pression 1024 hPa
Visibilité 10 km ou plus
pas de nuages en-dessous de 1500 mètres et pas de cumulonimbus.

METAR: LFPV 080100Z AUTO 06005KT CAVOK 11/06 Q1024 NOSIG

Heure: 03:24 (01:24 UTC)

Prévision

Le bulletin a été fait il y a 5 heures et 24 minutes, à 20:00 UTC
Prévision valable du 07 à 21 UTC au 08 à 21 UTC
Vent 5 kt de est
Visibilité 10 km ou plus
pas de nuages en-dessous de 1500 mètres et pas de cumulonimbus.
Evoluant progressivement
du 08 à 07 UTC au 08 à 09 UTC
Vent 5 kt de sud

TAF: LFPV 072000Z 0721/0821 08005KT CAVOK BECMG 0807/0809 17005KT

Observations et prévisions météorologiques de plus de 4000 aéroports (messages METAR et TAF).

Les stations disponibles sont représentées par des disques jaunes et rouges sur la carte.

Passer la souris dessus pour voir le nom de la station.

Cliquer dessus pour voir les observations et prévisions météorologiques.

Pour changer de carte: cliquez sur les boutons verts avec une croix noire pour zoomer, sur le bouton vert avec un tiret pour effectuer un zoom arrière, ou sur les flèches vertes pour les cartes adjacentes.


METAR-TAF: